createdAt,value
2022-11-24T00:01:09.558Z,3.09
2022-11-24T00:03:41.882Z,3.08
2022-11-24T00:06:16.170Z,3.06
2022-11-24T00:08:49.612Z,3.03
2022-11-24T00:11:24.191Z,2.98
2022-11-24T00:13:56.843Z,2.96
2022-11-24T00:16:30.964Z,2.97
2022-11-24T00:19:05.535Z,2.99
2022-11-24T00:21:38.945Z,3.03
2022-11-24T00:24:13.114Z,3.05
2022-11-24T00:26:45.370Z,3.09
2022-11-24T00:29:15.991Z,3.11
2022-11-24T00:31:48.116Z,3.12
2022-11-24T00:34:18.953Z,3.14
2022-11-24T00:36:51.081Z,3.14
2022-11-24T00:39:23.174Z,3.15
2022-11-24T00:41:55.326Z,3.13
2022-11-24T00:44:27.827Z,3.14
2022-11-24T00:47:00.056Z,3.13
2022-11-24T00:49:32.671Z,3.14
2022-11-24T00:52:03.238Z,3.15
2022-11-24T00:54:35.612Z,3.14
2022-11-24T00:57:07.920Z,3.12
2022-11-24T00:59:40.347Z,3.12
2022-11-24T01:02:12.644Z,3.12
2022-11-24T01:04:43.280Z,3.11
2022-11-24T01:07:15.414Z,3.08
2022-11-24T01:09:46.090Z,3.08
2022-11-24T01:12:18.262Z,3.07
2022-11-24T01:14:48.943Z,3.09
2022-11-24T01:17:21.087Z,3.10
2022-11-24T01:19:51.819Z,3.12
2022-11-24T01:22:26.662Z,3.13
2022-11-24T01:24:59.254Z,3.14
2022-11-24T01:27:31.531Z,3.13
2022-11-24T01:30:02.099Z,3.08
2022-11-24T01:32:36.292Z,3.02
2022-11-24T01:35:10.521Z,2.96
2022-11-24T01:37:42.733Z,2.90
2022-11-24T01:40:13.938Z,2.86
2022-11-24T01:42:50.711Z,2.84
2022-11-24T01:45:42.867Z,2.86
2022-11-24T01:48:22.077Z,2.89
2022-11-24T01:51:03.697Z,2.89
2022-11-24T01:53:36.518Z,2.90
2022-11-24T01:56:10.451Z,2.90
2022-11-24T01:58:44.168Z,2.91
2022-11-24T02:01:16.565Z,2.93
2022-11-24T02:03:50.388Z,2.95
2022-11-24T02:06:26.746Z,2.96
2022-11-24T02:09:03.614Z,2.97
2022-11-24T02:11:39.122Z,2.98
2022-11-24T02:14:15.080Z,3.01
2022-11-24T02:16:52.029Z,3.03
2022-11-24T02:19:37.430Z,3.06
2022-11-24T02:22:15.533Z,3.09
2022-11-24T02:24:53.087Z,3.09
2022-11-24T02:27:25.366Z,3.07
2022-11-24T02:29:55.855Z,3.06
2022-11-24T02:32:28.661Z,3.04
2022-11-24T02:35:05.897Z,3.04
2022-11-24T02:37:38.404Z,3.05
2022-11-24T02:40:15.642Z,3.05
2022-11-24T02:42:48.772Z,3.04
2022-11-24T02:45:22.145Z,3.05
2022-11-24T02:47:54.418Z,3.06
2022-11-24T02:50:25.296Z,3.06
2022-11-24T02:52:57.648Z,3.06
2022-11-24T02:55:28.333Z,3.07
2022-11-24T02:58:00.529Z,3.06
2022-11-24T03:00:31.120Z,3.06
2022-11-24T03:03:03.406Z,3.06
2022-11-24T03:05:35.916Z,3.07
2022-11-24T03:08:08.456Z,3.08
2022-11-24T03:10:40.628Z,3.09
2022-11-24T03:13:11.734Z,3.08
2022-11-24T03:15:43.976Z,3.05
2022-11-24T03:18:16.307Z,3.03
2022-11-24T03:20:48.554Z,3.02
2022-11-24T03:23:20.931Z,3.01
2022-11-24T03:25:53.320Z,3.01
2022-11-24T03:28:25.722Z,3.01
2022-11-24T03:30:56.306Z,3.03
2022-11-24T03:33:28.749Z,3.05
2022-11-24T03:36:01.203Z,3.06
2022-11-24T03:38:32.137Z,3.08
2022-11-24T03:41:04.450Z,3.08
2022-11-24T03:43:41.985Z,3.08
2022-11-24T03:46:15.967Z,3.11
2022-11-24T03:48:48.160Z,3.11
2022-11-24T03:51:18.857Z,3.12
2022-11-24T03:53:51.082Z,3.10
2022-11-24T03:56:21.885Z,3.10
2022-11-24T03:58:54.059Z,3.09
2022-11-24T04:01:24.656Z,3.08
2022-11-24T04:03:56.920Z,3.05
2022-11-24T04:06:27.611Z,3.03
2022-11-24T04:09:00.996Z,2.98
2022-11-24T04:11:50.506Z,2.92
2022-11-24T04:14:22.601Z,2.89
2022-11-24T04:16:54.809Z,2.86
2022-11-24T04:19:26.967Z,2.84
2022-11-24T04:21:57.660Z,2.81
2022-11-24T04:24:29.895Z,2.74
2022-11-24T04:27:00.447Z,2.70
2022-11-24T04:29:32.941Z,2.65
2022-11-24T04:32:03.554Z,2.65
2022-11-24T04:34:36.247Z,2.61
2022-11-24T04:37:08.610Z,2.60
2022-11-24T04:39:39.203Z,2.59
2022-11-24T04:42:11.513Z,2.57
2022-11-24T04:44:43.839Z,2.59
2022-11-24T04:47:23.032Z,2.58
2022-11-24T04:49:55.990Z,2.57
2022-11-24T04:52:28.695Z,2.57
2022-11-24T04:55:01.061Z,2.59
2022-11-24T04:57:31.692Z,2.60
2022-11-24T05:00:04.371Z,2.60
2022-11-24T05:02:36.639Z,2.60
2022-11-24T05:05:08.530Z,2.61
2022-11-24T05:07:40.871Z,2.60
2022-11-24T05:10:30.852Z,2.55
2022-11-24T05:13:05.639Z,2.52
2022-11-24T05:15:38.207Z,2.46
2022-11-24T05:18:12.975Z,2.40
2022-11-24T05:20:45.854Z,2.34
2022-11-24T05:23:18.678Z,2.32
2022-11-24T05:25:51.462Z,2.33
2022-11-24T05:28:23.616Z,2.35
2022-11-24T05:30:56.316Z,2.39
2022-11-24T05:33:30.182Z,2.42
2022-11-24T05:36:05.740Z,2.43
2022-11-24T05:38:38.452Z,2.45
2022-11-24T05:41:10.879Z,2.48
2022-11-24T05:43:42.976Z,2.51
2022-11-24T05:46:15.143Z,2.55
2022-11-24T05:48:48.808Z,2.53
2022-11-24T05:51:21.137Z,2.52
2022-11-24T05:53:51.756Z,2.53
2022-11-24T05:56:23.908Z,2.54
2022-11-24T05:58:56.051Z,2.58
2022-11-24T06:01:26.578Z,2.62
2022-11-24T06:03:58.664Z,2.63
2022-11-24T06:06:30.789Z,2.65
2022-11-24T06:09:01.288Z,2.65
2022-11-24T06:11:33.431Z,2.66
2022-11-24T06:14:08.305Z,2.70
2022-11-24T06:16:43.666Z,2.70
2022-11-24T06:19:16.039Z,2.70
2022-11-24T06:21:48.752Z,2.70
2022-11-24T06:24:20.974Z,2.72
2022-11-24T06:26:53.139Z,2.72
2022-11-24T06:29:23.533Z,2.74
2022-11-24T06:31:55.680Z,2.74
2022-11-24T06:34:28.057Z,2.73
2022-11-24T06:37:01.145Z,2.73
2022-11-24T06:39:33.503Z,2.72
2022-11-24T06:42:06.198Z,2.73
2022-11-24T06:44:38.370Z,2.73
2022-11-24T06:47:10.661Z,2.74
2022-11-24T06:49:41.432Z,2.74
2022-11-24T06:52:13.563Z,2.72
2022-11-24T06:54:44.199Z,2.73
2022-11-24T06:57:16.358Z,2.75
2022-11-24T06:59:46.957Z,2.75
2022-11-24T07:02:19.154Z,2.72
2022-11-24T07:04:49.723Z,2.70
2022-11-24T07:07:21.741Z,2.68
2022-11-24T07:09:53.952Z,2.65
2022-11-24T07:12:25.298Z,2.61
2022-11-24T07:14:57.368Z,2.60
2022-11-24T07:17:29.432Z,2.61
2022-11-24T07:19:59.826Z,2.59
2022-11-24T07:22:31.993Z,2.60
2022-11-24T07:25:07.435Z,2.59
2022-11-24T07:27:39.752Z,2.59
2022-11-24T07:30:13.574Z,2.58
2022-11-24T07:32:45.750Z,2.59
2022-11-24T07:35:16.455Z,2.61
2022-11-24T07:37:48.869Z,2.59
2022-11-24T07:40:19.682Z,2.62
2022-11-24T07:42:51.910Z,2.64
2022-11-24T07:45:24.159Z,2.64
2022-11-24T07:47:56.339Z,2.62
2022-11-24T07:50:28.594Z,2.61
2022-11-24T07:53:01.869Z,2.62
2022-11-24T07:55:34.120Z,2.62
2022-11-24T07:58:06.218Z,2.63
2022-11-24T08:00:36.755Z,2.63
2022-11-24T08:03:08.823Z,2.60
2022-11-24T08:06:00.621Z,2.58
2022-11-24T08:08:34.025Z,2.54
2022-11-24T08:11:11.201Z,2.56
2022-11-24T08:13:43.868Z,2.56
2022-11-24T08:16:18.793Z,2.57
2022-11-24T08:18:54.288Z,2.58
2022-11-24T08:21:26.438Z,2.60
2022-11-24T08:23:59.428Z,2.61
2022-11-24T08:26:31.485Z,2.63
2022-11-24T08:29:03.599Z,2.65
2022-11-24T08:31:36.149Z,2.67
2022-11-24T08:34:08.933Z,2.67
2022-11-24T08:36:40.966Z,2.71
2022-11-24T08:39:13.234Z,2.72
2022-11-24T08:41:45.622Z,2.77
2022-11-24T08:44:18.443Z,2.80
2022-11-24T08:46:51.173Z,2.81
2022-11-24T08:49:23.466Z,2.84
2022-11-24T08:51:53.968Z,2.85
2022-11-24T08:54:28.115Z,2.87
2022-11-24T08:57:00.169Z,2.94
2022-11-24T08:59:32.428Z,2.97
2022-11-24T09:02:03.003Z,2.99
2022-11-24T09:04:35.608Z,3.00
2022-11-24T09:07:08.162Z,3.04
2022-11-24T09:09:40.351Z,3.06
2022-11-24T09:12:14.348Z,3.04
2022-11-24T09:14:47.158Z,3.03
2022-11-24T09:17:17.655Z,3.02
2022-11-24T09:19:49.771Z,2.99
2022-11-24T09:22:21.752Z,2.98
2022-11-24T09:24:53.991Z,2.95
2022-11-24T09:27:24.560Z,2.95
2022-11-24T09:29:56.588Z,2.96
2022-11-24T09:32:29.587Z,3.01
2022-11-24T09:35:02.091Z,3.07
2022-11-24T09:37:35.732Z,3.13
2022-11-24T09:40:11.740Z,3.19
2022-11-24T09:42:53.787Z,3.24
2022-11-24T09:46:03.877Z,3.27
2022-11-24T09:48:33.153Z,3.33
2022-11-24T09:51:06.986Z,3.36
2022-11-24T09:53:44.721Z,3.39
2022-11-24T09:56:21.953Z,3.43
2022-11-24T09:58:56.185Z,3.44
2022-11-24T10:01:31.825Z,3.49
2022-11-24T10:04:06.683Z,3.46
2022-11-24T10:06:45.672Z,3.48
2022-11-24T10:09:29.044Z,3.52
2022-11-24T10:12:14.823Z,3.58
2022-11-24T10:15:06.470Z,3.64
2022-11-24T10:18:02.256Z,3.69
2022-11-24T10:20:46.432Z,3.76
2022-11-24T10:23:39.759Z,3.83
2022-11-24T10:26:19.931Z,3.85
2022-11-24T10:28:56.371Z,3.86
2022-11-24T10:31:33.992Z,3.85
2022-11-24T10:34:13.680Z,3.82
2022-11-24T10:36:52.529Z,3.82
2022-11-24T10:39:35.321Z,3.82
2022-11-24T10:42:17.238Z,3.77
2022-11-24T10:44:59.645Z,3.72
2022-11-24T10:47:32.656Z,3.70
2022-11-24T10:50:12.472Z,3.66
2022-11-24T10:52:49.001Z,3.64
2022-11-24T10:55:21.782Z,3.63
2022-11-24T10:57:54.331Z,3.62
2022-11-24T11:00:35.973Z,3.59
2022-11-24T11:03:22.058Z,3.62
2022-11-24T11:05:57.532Z,3.66
2022-11-24T11:08:31.799Z,3.69
2022-11-24T11:11:23.984Z,3.69
2022-11-24T11:14:03.422Z,3.70
2022-11-24T11:16:40.039Z,3.72
2022-11-24T11:19:58.531Z,3.74
2022-11-24T11:22:31.792Z,3.78
2022-11-24T11:25:19.586Z,3.82
2022-11-24T11:27:51.886Z,3.86
2022-11-24T11:36:21.924Z,3.91
2022-11-24T11:38:52.467Z,3.97
2022-11-24T11:41:29.543Z,4.04
2022-11-24T11:44:12.026Z,4.12
2022-11-24T11:46:43.218Z,4.14
2022-11-24T11:49:15.817Z,4.12
2022-11-24T11:52:15.740Z,4.11
2022-11-24T11:55:09.338Z,4.10
2022-11-24T11:57:51.812Z,4.09
2022-11-24T12:00:24.671Z,4.14
2022-11-24T12:03:26.189Z,4.16
2022-11-24T12:06:08.655Z,4.19
2022-11-24T12:09:18.504Z,4.23
2022-11-24T12:11:49.941Z,4.22
2022-11-24T12:14:30.822Z,4.23
2022-11-24T12:17:12.036Z,4.28
2022-11-24T12:20:04.893Z,4.33
2022-11-24T12:22:44.135Z,4.31
2022-11-24T12:25:26.653Z,4.28
2022-11-24T12:28:10.807Z,4.19
2022-11-24T12:30:51.831Z,4.11
2022-11-24T12:33:38.655Z,4.10
2022-11-24T12:36:25.225Z,4.14
2022-11-24T12:39:06.601Z,4.18
2022-11-24T12:41:59.769Z,4.17
2022-11-24T12:44:48.172Z,4.20
2022-11-24T12:47:23.337Z,4.16
2022-11-24T12:50:04.723Z,4.12
2022-11-24T12:52:41.088Z,4.05
2022-11-24T12:55:19.705Z,4.02
2022-11-24T12:58:00.686Z,3.98
2022-11-24T13:00:38.110Z,3.97
2022-11-24T13:03:22.217Z,3.92
2022-11-24T13:05:58.961Z,3.91
2022-11-24T13:08:32.366Z,3.91
2022-11-24T13:11:39.571Z,3.88
2022-11-24T13:14:16.961Z,3.85
2022-11-24T13:17:21.513Z,3.81
2022-11-24T13:19:47.319Z,3.81
2022-11-24T13:22:26.717Z,3.82
2022-11-24T13:25:18.315Z,3.83
2022-11-24T13:27:53.524Z,3.91
2022-11-24T13:31:10.832Z,3.96
2022-11-24T13:33:43.367Z,4.01
2022-11-24T13:36:33.606Z,4.05
2022-11-24T13:39:19.515Z,4.08
2022-11-24T13:42:42.176Z,4.10
2022-11-24T13:45:04.644Z,4.07
2022-11-24T13:47:47.436Z,4.05
2022-11-24T13:50:47.751Z,4.04
2022-11-24T13:53:28.380Z,3.99
2022-11-24T13:56:05.061Z,3.95
2022-11-24T13:58:39.908Z,3.91
2022-11-24T14:01:20.129Z,3.89
2022-11-24T14:07:06.757Z,3.93
2022-11-24T14:09:44.736Z,3.94
2022-11-24T14:12:21.317Z,3.95
2022-11-24T14:14:55.719Z,3.94
2022-11-24T14:17:29.532Z,3.93
2022-11-24T14:20:01.585Z,3.95
2022-11-24T14:22:36.721Z,3.96
2022-11-24T14:25:20.770Z,3.93
2022-11-24T14:27:52.938Z,3.93
2022-11-24T14:30:25.426Z,3.91
2022-11-24T14:32:56.922Z,3.87
2022-11-24T14:35:30.500Z,3.82
2022-11-24T14:38:05.726Z,3.80
2022-11-24T14:40:46.918Z,3.79
2022-11-24T14:43:29.166Z,3.80
2022-11-24T14:46:00.952Z,3.81
2022-11-24T14:48:37.058Z,3.82
2022-11-24T14:51:15.779Z,3.84
2022-11-24T14:53:51.952Z,3.86
2022-11-24T14:56:29.797Z,3.89
2022-11-24T14:59:02.009Z,3.92
2022-11-24T15:01:36.347Z,3.96
2022-11-24T15:04:32.822Z,3.98
2022-11-24T15:07:19.980Z,4.00
2022-11-24T15:09:58.147Z,4.02
2022-11-24T15:12:34.927Z,4.04
2022-11-24T15:15:18.466Z,4.05
2022-11-24T15:17:52.909Z,4.05
2022-11-24T15:20:30.449Z,4.05
2022-11-24T15:23:24.379Z,4.04
2022-11-24T15:25:57.309Z,4.04
2022-11-24T15:28:30.256Z,4.04
2022-11-24T15:31:05.634Z,4.03
2022-11-24T15:33:37.877Z,4.04
2022-11-24T15:36:12.523Z,4.03
2022-11-24T15:38:44.713Z,4.03
2022-11-24T15:41:21.090Z,4.03
2022-11-24T15:43:59.066Z,4.00
2022-11-24T15:46:38.020Z,3.98
2022-11-24T15:49:10.661Z,3.98
2022-11-24T15:51:44.542Z,3.97
2022-11-24T15:54:18.883Z,3.93
2022-11-24T15:56:51.099Z,3.93
2022-11-24T15:59:23.193Z,3.96
2022-11-24T16:01:55.546Z,3.97
2022-11-24T16:04:28.232Z,3.98
2022-11-24T16:07:00.779Z,3.97
2022-11-24T16:09:33.320Z,3.96
2022-11-24T16:12:05.743Z,3.95
2022-11-24T16:14:38.269Z,3.93
2022-11-24T16:17:10.474Z,3.93
2022-11-24T16:19:42.411Z,3.92
2022-11-24T16:22:14.630Z,3.92
2022-11-24T16:24:45.107Z,3.92
2022-11-24T16:27:17.298Z,3.91
2022-11-24T16:29:50.877Z,3.90
2022-11-24T16:32:23.077Z,3.87
2022-11-24T16:34:53.603Z,3.83
2022-11-24T16:37:25.966Z,3.79
2022-11-24T16:39:58.538Z,3.78
2022-11-24T16:42:31.079Z,3.74
2022-11-24T16:45:03.392Z,3.71
2022-11-24T16:47:42.139Z,3.68
2022-11-24T16:50:15.105Z,3.62
2022-11-24T16:52:47.615Z,3.60
2022-11-24T16:55:19.999Z,3.58
2022-11-24T16:57:52.482Z,3.58
2022-11-24T17:00:24.808Z,3.60
2022-11-24T17:02:57.109Z,3.60
2022-11-24T17:05:29.410Z,3.62
2022-11-24T17:08:01.555Z,3.61
2022-11-24T17:10:32.261Z,3.62
2022-11-24T17:13:04.409Z,3.59
2022-11-24T17:15:40.856Z,3.59
2022-11-24T17:18:24.373Z,3.56
2022-11-24T17:21:03.193Z,3.56
2022-11-24T17:23:38.584Z,3.55
2022-11-24T17:26:12.568Z,3.54
2022-11-24T17:28:45.975Z,3.55
2022-11-24T17:31:22.300Z,3.58
2022-11-24T17:33:56.769Z,3.59
2022-11-24T17:36:29.763Z,3.61
2022-11-24T17:39:04.592Z,3.62
2022-11-24T17:41:37.244Z,3.60
2022-11-24T17:44:08.761Z,3.58
2022-11-24T17:46:41.020Z,3.55
2022-11-24T17:49:14.566Z,3.52
2022-11-24T17:51:50.586Z,3.49
2022-11-24T17:57:14.993Z,3.52
2022-11-24T17:59:47.428Z,3.50
2022-11-24T18:02:19.799Z,3.48
2022-11-24T18:04:50.302Z,3.46
2022-11-24T18:07:22.787Z,3.42
2022-11-24T18:09:54.931Z,3.39
2022-11-24T18:12:27.205Z,3.36
2022-11-24T18:14:57.850Z,3.36
2022-11-24T18:17:30.342Z,3.34
2022-11-24T18:20:02.519Z,3.34
2022-11-24T18:23:04.118Z,3.33
2022-11-24T18:25:27.340Z,3.35
2022-11-24T18:27:58.102Z,3.35
2022-11-24T18:30:30.283Z,3.36
2022-11-24T18:33:02.635Z,3.37
2022-11-24T18:35:33.411Z,3.35
2022-11-24T18:38:05.937Z,3.34
2022-11-24T18:40:41.793Z,3.33
2022-11-24T18:43:14.645Z,3.32
2022-11-24T18:45:47.891Z,3.31
2022-11-24T18:48:20.845Z,3.29
2022-11-24T18:50:55.382Z,3.29
2022-11-24T18:53:30.051Z,3.28
2022-11-24T18:56:03.781Z,3.25
2022-11-24T18:58:37.255Z,3.23
2022-11-24T19:01:11.344Z,3.24
2022-11-24T19:03:48.753Z,3.24
2022-11-24T19:06:24.155Z,3.22
2022-11-24T19:08:57.418Z,3.21
2022-11-24T19:11:34.020Z,3.17
2022-11-24T19:14:08.884Z,3.16
2022-11-24T19:16:41.863Z,3.15
2022-11-24T19:19:17.808Z,3.15
2022-11-24T19:21:50.720Z,3.15
2022-11-24T19:24:23.026Z,3.15
2022-11-24T19:26:55.541Z,3.15
2022-11-24T19:29:28.321Z,3.15
2022-11-24T19:32:00.610Z,3.14
2022-11-24T19:34:33.749Z,3.15
2022-11-24T19:37:06.417Z,3.17
2022-11-24T19:39:38.820Z,3.18
2022-11-24T19:42:11.141Z,3.18
2022-11-24T19:44:41.731Z,3.16
2022-11-24T19:47:13.780Z,3.14
2022-11-24T19:49:45.962Z,3.12
2022-11-24T19:52:18.658Z,3.11
2022-11-24T19:54:50.797Z,3.10
2022-11-24T19:57:21.330Z,3.07
2022-11-24T19:59:53.894Z,3.02
2022-11-24T20:02:28.105Z,3.02
2022-11-24T20:05:00.925Z,3.03
2022-11-24T20:07:33.390Z,3.03
2022-11-24T20:10:08.582Z,3.02
2022-11-24T20:12:41.331Z,3.01
2022-11-24T20:15:12.375Z,2.99
2022-11-24T20:17:44.763Z,2.98
2022-11-24T20:20:16.158Z,2.98
2022-11-24T20:22:48.349Z,2.95
2022-11-24T20:25:20.937Z,2.91
2022-11-24T20:27:53.391Z,2.88
2022-11-24T20:30:25.447Z,2.85
2022-11-24T20:32:57.862Z,2.86
2022-11-24T20:35:30.652Z,2.85
2022-11-24T20:38:03.136Z,2.86
2022-11-24T20:40:35.371Z,2.88
2022-11-24T20:43:08.219Z,2.89
2022-11-24T20:45:40.566Z,2.89
2022-11-24T20:48:12.867Z,2.85
2022-11-24T20:50:48.313Z,2.81
2022-11-24T20:53:23.253Z,2.74
2022-11-24T20:56:05.618Z,2.71
2022-11-24T20:58:39.528Z,2.69
2022-11-24T21:01:14.032Z,2.69
2022-11-24T21:03:47.537Z,2.65
2022-11-24T21:06:20.112Z,2.63
2022-11-24T21:08:52.608Z,2.61
2022-11-24T21:11:26.175Z,2.60
2022-11-24T21:13:58.873Z,2.60
2022-11-24T21:16:33.094Z,2.60
2022-11-24T21:19:07.684Z,2.56
2022-11-24T21:21:42.805Z,2.50
2022-11-24T21:24:17.167Z,2.45
2022-11-24T21:26:52.817Z,2.40
2022-11-24T21:29:25.743Z,2.37
2022-11-24T21:31:57.984Z,2.35
2022-11-24T21:34:28.974Z,2.33
2022-11-24T21:37:01.395Z,2.29
2022-11-24T21:39:33.618Z,2.26
2022-11-24T21:42:05.969Z,2.23
2022-11-24T21:44:38.243Z,2.24
2022-11-24T21:47:10.308Z,2.24
2022-11-24T21:49:40.863Z,2.22
2022-11-24T21:52:12.856Z,2.20
2022-11-24T21:54:43.563Z,2.22
2022-11-24T21:57:15.661Z,2.20
2022-11-24T21:59:47.732Z,2.21
2022-11-24T22:02:19.920Z,2.17
2022-11-24T22:04:52.118Z,2.15
2022-11-24T22:07:24.148Z,2.14
2022-11-24T22:09:55.790Z,2.14
2022-11-24T22:12:28.041Z,2.14
2022-11-24T22:14:58.601Z,2.14
2022-11-24T22:17:32.697Z,2.12
2022-11-24T22:20:05.170Z,2.06
2022-11-24T22:22:37.331Z,2.02
2022-11-24T22:25:08.515Z,2.01
2022-11-24T22:27:40.574Z,1.95
2022-11-24T22:30:13.882Z,1.92
2022-11-24T22:32:46.050Z,1.92
2022-11-24T22:35:16.800Z,1.90
2022-11-24T22:37:48.906Z,1.87
2022-11-24T22:40:21.333Z,1.84
2022-11-24T22:42:55.737Z,1.83
2022-11-24T22:45:27.893Z,1.82
2022-11-24T22:47:58.406Z,1.81
2022-11-24T22:50:30.509Z,1.82
2022-11-24T22:53:02.555Z,1.82
2022-11-24T22:55:33.038Z,1.84
2022-11-24T22:58:05.098Z,1.84
2022-11-24T23:00:37.188Z,1.84
2022-11-24T23:03:07.794Z,1.85
2022-11-24T23:05:40.440Z,1.87
2022-11-24T23:08:12.999Z,1.90
2022-11-24T23:10:45.162Z,1.92
2022-11-24T23:13:18.243Z,1.93
2022-11-24T23:15:50.226Z,1.97
2022-11-24T23:18:20.758Z,2.00
2022-11-24T23:20:52.913Z,2.02
2022-11-24T23:23:24.978Z,2.03
2022-11-24T23:25:57.035Z,2.04
2022-11-24T23:28:29.121Z,2.04
2022-11-24T23:31:02.999Z,2.03
2022-11-24T23:33:35.391Z,2.00
2022-11-24T23:36:09.312Z,2.02
2022-11-24T23:38:41.771Z,2.02
2022-11-24T23:41:15.898Z,2.00
2022-11-24T23:43:48.001Z,1.97
2022-11-24T23:46:21.138Z,1.97
2022-11-24T23:48:55.627Z,1.96
2022-11-24T23:51:29.539Z,1.95
2022-11-24T23:54:02.417Z,1.94
2022-11-24T23:56:35.287Z,1.94
2022-11-24T23:59:07.557Z,1.91
